Atlanta, NE

5:39 PM CST on February 09, 2016 (GMT -0600)
Brewster

Weather History for KHDE - June, 2013

Change the Weather History Date:

Monday, June 10, 2013

  Actual Average Record
Temperature  
Mean Temperature 72 °F -  
Max Temperature 92 °F 81 °F 99 °F (1952)
Min Temperature 53 °F 55 °F 14 °F (1999)
Cooling Degree Days 8    
Growing Degree Days 22 (Base 50)    
Moisture  
Dew Point 55 °F    
Average Humidity 52    
Maximum Humidity 80    
Minimum Humidity 30    
Precipitation  
Precipitation 0.00 in - - ()
Sea Level Pressure  
Sea Level Pressure 29.84 in    
Wind  
Wind Speed 10 mph (SSE)    
Max Wind Speed 20 mph    
Max Gust Speed 26 mph    
Visibility 10 miles    
Events      
Averages and records for this station are not official NWS values.
T = Trace of Precipitation, MM = Missing Value Source: NWS Daily Summary

Daily Weather History Graph

Daily Weather History Graph

Search for Another Location

Airport or City:

Trip Planner

Search our weather history database for the weather conditions in past years. The results will help you decide how hot, cold, wet, or windy it might be!

Date:

Astronomy

Jun. 10, 2013 Rise Set
Actual Time 6:06 AM CDT 9:07 PM CDT
Civil Twilight 5:33 AM CDT 9:40 PM CDT
Nautical Twilight 4:51 AM CDT 10:22 PM CDT
Astronomical Twilight 4:02 AM CDT 11:11 PM CDT
Moon 7:57 AM CDT (6/10) 10:34 PM CDT (6/10)
Length of Visible Light 16h 06m
Length of Day
15h 00m
Waxing Crescent, 4% of the Moon is Illuminated
Jun 10
Waxing Crescent
Jun 16
First Quarter
Jun 23
Full
Jun 29
Last Quarter
Jul 8
New

Hourly Weather History & Observations

Time (CDT) Temp. Heat Index Dew Point Humidity Pressure Visibility Wind Dir Wind Speed Gust Speed Precip Events Conditions
12:15 AM 60.8 °F - 48.7 °F 64% 29.90 in 10.0 mi East 6.9 mph - N/A   Clear
12:35 AM 59.2 °F - 48.9 °F 69% 29.91 in 10.0 mi Calm Calm - N/A   Clear
12:55 AM 60.4 °F - 49.3 °F 67% 29.90 in 10.0 mi East 9.2 mph - N/A   Clear
1:15 AM 60.3 °F - 48.6 °F 65% 29.91 in 10.0 mi East 8.1 mph - N/A   Clear
1:35 AM 59.9 °F - 49.3 °F 68% 29.90 in 10.0 mi East 8.1 mph - N/A   Clear
1:55 AM 59.5 °F - 49.3 °F 69% 29.91 in 10.0 mi East 6.9 mph - N/A   Clear
2:15 AM 57.7 °F - 48.6 °F 71% 29.91 in 10.0 mi ESE 5.8 mph - N/A   Clear
2:35 AM 57.9 °F - 48.6 °F 71% 29.92 in 10.0 mi South 4.6 mph - N/A   Clear
2:55 AM 55.4 °F - 48.2 °F 77% 29.91 in 10.0 mi SSE 3.5 mph - N/A   Clear
3:15 AM 56.7 °F - 48.4 °F 74% 29.91 in 10.0 mi South 5.8 mph - N/A   Clear
3:35 AM 56.3 °F - 48.4 °F 75% 29.91 in 10.0 mi South 3.5 mph - N/A   Clear
3:55 AM 54.7 °F - 48.0 °F 78% 29.91 in 10.0 mi South 3.5 mph - N/A   Clear
4:15 AM 56.3 °F - 48.6 °F 75% 29.91 in 10.0 mi South 5.8 mph - N/A   Clear
4:35 AM 56.5 °F - 48.4 °F 74% 29.91 in 10.0 mi South 5.8 mph - N/A   Clear
4:55 AM 53.2 °F - 47.3 °F 80% 29.90 in 10.0 mi South 3.5 mph - N/A   Clear
5:15 AM 54.5 °F - 47.8 °F 78% 29.90 in 10.0 mi SSE 3.5 mph - N/A   Clear
5:35 AM 53.4 °F - 47.1 °F 79% 29.90 in 10.0 mi Calm Calm - N/A   Clear
5:55 AM 55.2 °F - 48.2 °F 77% 29.90 in 10.0 mi South 5.8 mph - N/A   Clear
6:15 AM 56.5 °F - 48.0 °F 73% 29.90 in 10.0 mi South 4.6 mph - N/A   Clear
6:35 AM 55.2 °F - 48.4 °F 78% 29.88 in 10.0 mi SSE 5.8 mph - N/A   Clear
6:55 AM 57.4 °F - 49.1 °F 74% 29.88 in 10.0 mi SSE 9.2 mph - N/A   Clear
7:15 AM 59.7 °F - 49.8 °F 70% 29.89 in 10.0 mi South 5.8 mph - N/A   Clear
7:35 AM 61.9 °F - 50.5 °F 66% 29.89 in 10.0 mi SSE 5.8 mph - N/A   Clear
7:55 AM 65.1 °F - 50.5 °F 59% 29.88 in 10.0 mi South 9.2 mph - N/A   Clear
8:15 AM 67.1 °F - 50.4 °F 55% 29.88 in 10.0 mi SSE 12.7 mph - N/A   Clear
8:35 AM 69.3 °F - 49.8 °F 50% 29.88 in 10.0 mi SSE 12.7 mph - N/A   Clear
8:55 AM 70.7 °F - 49.1 °F 46% 29.87 in 10.0 mi SSE 12.7 mph - N/A   Clear
9:15 AM 72.0 °F - 49.3 °F 45% 29.87 in 10.0 mi SSE 17.3 mph 21.9 mph N/A   Clear
9:35 AM 73.4 °F - 49.6 °F 43% 29.86 in 10.0 mi SSE 17.3 mph 21.9 mph N/A   Clear
9:55 AM 74.3 °F - 49.3 °F 41% 29.87 in 10.0 mi SSE 15.0 mph 24.2 mph N/A   Clear
10:15 AM 75.6 °F - 50.2 °F 41% 29.86 in 10.0 mi SSE 17.3 mph - N/A   Clear
10:35 AM 77.2 °F - 47.1 °F 35% 29.86 in 10.0 mi SSE 17.3 mph 23.0 mph N/A   Clear
10:55 AM 78.3 °F - 47.7 °F 34% 29.86 in 10.0 mi SSE 15.0 mph 25.3 mph N/A   Clear
11:15 AM 79.7 °F - 47.1 °F 32% 29.86 in 10.0 mi SSE 18.4 mph 24.2 mph N/A   Clear
11:35 AM 81.0 °F - 47.7 °F 31% 29.85 in 10.0 mi SSE 19.6 mph 26.5 mph N/A   Clear
11:55 AM 82.0 °F - 48.2 °F 31% 29.85 in 10.0 mi SSE 17.3 mph 25.3 mph N/A   Clear
12:15 PM 83.3 °F - 48.4 °F 30% 29.84 in 10.0 mi SSE 18.4 mph 25.3 mph N/A   Clear
12:35 PM 84.0 °F - 49.1 °F 30% 29.83 in 10.0 mi SSE 17.3 mph 26.5 mph N/A   Clear
12:55 PM 85.1 °F - 50.9 °F 31% 29.83 in 10.0 mi SSE 16.1 mph 24.2 mph N/A   Clear
1:15 PM 85.8 °F - 51.4 °F 30% 29.82 in 10.0 mi SE 15.0 mph - N/A   Clear
1:35 PM 86.4 °F - 52.2 °F 31% 29.82 in 10.0 mi SSE 17.3 mph 24.2 mph N/A   Clear
1:55 PM 87.1 °F - 52.9 °F 31% 29.82 in 10.0 mi SSE 12.7 mph 23.0 mph N/A   Clear
2:15 PM 88.0 °F - 52.9 °F 30% 29.82 in 10.0 mi South 12.7 mph 20.7 mph N/A   Clear
2:35 PM 88.9 °F 86.7 °F 54.0 °F 30% 29.81 in 10.0 mi South 16.1 mph 19.6 mph N/A   Clear
2:55 PM 89.1 °F 87.1 °F 54.5 °F 31% 29.81 in 10.0 mi South 16.1 mph 20.7 mph N/A   Clear
3:15 PM 90.3 °F 88.3 °F 55.2 °F 30% 29.81 in 10.0 mi South 12.7 mph 20.7 mph N/A   Clear
3:35 PM 90.7 °F 89.0 °F 55.8 °F 31% 29.81 in 10.0 mi South 16.1 mph 23.0 mph N/A   Clear
3:55 PM 91.6 °F 90.1 °F 57.2 °F 31% 29.80 in 10.0 mi SSE 18.4 mph 24.2 mph N/A   Clear
4:15 PM 91.8 °F 90.3 °F 57.4 °F 31% 29.79 in 10.0 mi SSE 17.3 mph 25.3 mph N/A   Clear
4:35 PM 91.9 °F 90.6 °F 56.8 °F 31% 29.79 in 10.0 mi South 11.5 mph 20.7 mph N/A   Clear
4:55 PM 92.1 °F 90.8 °F 57.6 °F 31% 29.79 in 10.0 mi SSE 12.7 mph 21.9 mph N/A   Clear
5:15 PM 92.1 °F 91.4 °F 59.4 °F 33% 29.78 in 10.0 mi SSE 19.6 mph - N/A   Clear
5:35 PM 91.8 °F 91.2 °F 59.7 °F 34% 29.77 in 10.0 mi SSE 17.3 mph 20.7 mph N/A   Clear
5:55 PM 92.5 °F 92.6 °F 61.2 °F 35% 29.76 in 10.0 mi SSE 17.3 mph - N/A   Clear
6:15 PM 91.6 °F 92.0 °F 61.9 °F 37% 29.76 in 10.0 mi SE 13.8 mph 18.4 mph N/A   Clear
6:35 PM 91.4 °F 92.1 °F 62.6 °F 38% 29.76 in 10.0 mi SE 15.0 mph 21.9 mph N/A   Clear
6:55 PM 91.4 °F 92.8 °F 63.9 °F 40% 29.76 in 10.0 mi SE 15.0 mph 19.6 mph N/A   Clear
7:15 PM 90.5 °F 91.8 °F 63.5 °F 41% 29.76 in 10.0 mi SE 15.0 mph - N/A   Clear
7:35 PM 89.6 °F 91.1 °F 64.6 °F 43% 29.76 in 10.0 mi SE 13.8 mph - N/A   Clear
7:55 PM 88.3 °F 90.2 °F 65.1 °F 46% 29.76 in 10.0 mi SE 12.7 mph - N/A   Clear
8:15 PM 86.7 °F 89.0 °F 66.0 °F 50% 29.76 in 10.0 mi ESE 10.4 mph - N/A   Clear
8:35 PM 84.7 °F 87.1 °F 66.6 °F 54% 29.76 in 10.0 mi ESE 11.5 mph - N/A   Clear
8:55 PM 84.0 °F 86.5 °F 66.6 °F 56% 29.75 in 10.0 mi ESE 11.5 mph - N/A   Clear
9:15 PM 81.7 °F 84.2 °F 66.9 °F 61% 29.76 in 10.0 mi ESE 11.5 mph - N/A   Clear
9:35 PM 81.0 °F 83.4 °F 67.1 °F 63% 29.75 in 10.0 mi ESE 11.5 mph - N/A   Clear
9:55 PM 80.1 °F 82.3 °F 67.1 °F 64% 29.76 in 10.0 mi ESE 11.5 mph - N/A   Clear
10:15 PM 79.7 °F - 67.1 °F 65% 29.76 in 10.0 mi ESE 11.5 mph - N/A   Clear
10:35 PM 78.8 °F - 67.1 °F 67% 29.77 in 10.0 mi ESE 11.5 mph - N/A   Clear
10:55 PM 78.4 °F - 67.1 °F 68% 29.77 in 10.0 mi ESE 11.5 mph - N/A   Clear
11:15 PM 78.3 °F - 67.5 °F 69% 29.77 in 10.0 mi SE 12.7 mph - N/A   Clear
11:35 PM 78.6 °F - 67.6 °F 69% 29.77 in 10.0 mi SE 13.8 mph - N/A   Clear
11:55 PM 78.3 °F - 68.0 °F 71% 29.77 in 10.0 mi ESE 12.7 mph - N/A   Clear